createdAt,value
2022-12-26T00:00:24.965Z,6.60
2022-12-26T00:03:30.734Z,7.12
2022-12-26T00:06:34.133Z,6.12
2022-12-26T00:09:37.252Z,6.85
2022-12-26T00:12:48.900Z,6.80
2022-12-26T00:16:17.166Z,7.30
2022-12-26T00:19:20.005Z,7.10
2022-12-26T00:22:31.347Z,6.97
2022-12-26T00:25:34.768Z,7.53
2022-12-26T00:29:02.091Z,6.55
2022-12-26T00:32:06.699Z,6.45
2022-12-26T00:35:13.031Z,6.03
2022-12-26T00:38:19.433Z,6.80
2022-12-26T00:41:32.254Z,7.32
2022-12-26T00:44:44.977Z,6.72
2022-12-26T00:47:48.318Z,6.57
2022-12-26T00:50:51.357Z,6.72
2022-12-26T00:53:54.527Z,7.07
2022-12-26T00:57:17.609Z,7.68
2022-12-26T01:00:22.568Z,7.05
2022-12-26T01:03:25.911Z,7.07
2022-12-26T01:06:29.888Z,6.97
2022-12-26T01:09:32.667Z,6.90
2022-12-26T01:12:37.022Z,6.50
2022-12-26T01:15:39.952Z,7.07
2022-12-26T01:18:43.216Z,7.60
2022-12-26T01:21:46.034Z,7.90
2022-12-26T01:24:57.395Z,7.03
2022-12-26T01:28:00.204Z,7.70
2022-12-26T01:31:11.126Z,9.48
2022-12-26T01:34:13.942Z,8.85
2022-12-26T01:37:17.247Z,9.10
2022-12-26T01:40:20.077Z,8.70
2022-12-26T01:43:53.706Z,7.37
2022-12-26T01:46:56.647Z,8.40
2022-12-26T01:50:33.530Z,9.02
2022-12-26T01:53:53.101Z,8.30
2022-12-26T01:57:04.144Z,8.27
2022-12-26T02:00:08.376Z,8.65
2022-12-26T02:03:41.077Z,9.68
2022-12-26T02:06:44.434Z,10.25
2022-12-26T02:09:47.451Z,10.55
2022-12-26T02:12:54.381Z,9.07
2022-12-26T02:15:58.196Z,9.65
2022-12-26T02:19:02.393Z,9.90
2022-12-26T02:22:32.070Z,8.98
2022-12-26T02:25:51.548Z,10.32
2022-12-26T02:29:19.272Z,11.32
2022-12-26T02:33:24.927Z,11.45
2022-12-26T02:36:54.117Z,12.68
2022-12-26T02:40:23.247Z,13.15
2022-12-26T02:44:01.139Z,13.98
2022-12-26T02:47:25.840Z,14.98
2022-12-26T02:51:12.797Z,14.43
2022-12-26T02:54:57.954Z,14.18
2022-12-26T02:58:45.569Z,13.52
2022-12-26T03:02:15.907Z,12.90
2022-12-26T03:05:59.675Z,13.93
2022-12-26T03:09:47.857Z,12.37
2022-12-26T03:13:13.555Z,12.57
2022-12-26T03:16:41.099Z,12.30
2022-12-26T03:20:26.931Z,13.15
2022-12-26T03:23:32.188Z,14.00
2022-12-26T03:26:47.480Z,15.60
2022-12-26T03:30:29.583Z,14.40
2022-12-26T03:34:18.555Z,14.87
2022-12-26T03:37:56.732Z,13.68
2022-12-26T03:41:37.019Z,13.38
2022-12-26T03:45:21.478Z,13.73
2022-12-26T03:48:54.102Z,14.45
2022-12-26T03:52:45.767Z,13.90
2022-12-26T03:56:15.884Z,12.95
2022-12-26T03:59:46.775Z,12.95
2022-12-26T04:03:12.175Z,12.10
2022-12-26T04:06:43.620Z,13.07
2022-12-26T04:10:22.204Z,13.00
2022-12-26T04:14:00.972Z,11.73
2022-12-26T04:17:42.069Z,12.98
2022-12-26T04:20:54.305Z,11.43
2022-12-26T04:24:29.710Z,12.20
2022-12-26T04:27:52.096Z,12.68
2022-12-26T04:31:24.527Z,11.32
2022-12-26T04:34:58.370Z,10.57
2022-12-26T04:38:23.100Z,10.75
2022-12-26T04:41:52.612Z,10.35
2022-12-26T04:44:56.340Z,10.38
2022-12-26T04:48:38.219Z,12.05
2022-12-26T04:51:42.519Z,9.75
2022-12-26T04:55:05.922Z,10.10
2022-12-26T04:58:08.701Z,10.70
2022-12-26T05:01:50.379Z,11.63
2022-12-26T05:05:11.865Z,12.00
2022-12-26T05:08:45.090Z,12.68
2022-12-26T05:11:47.871Z,12.35
2022-12-26T05:15:11.574Z,11.68
2022-12-26T05:18:33.045Z,12.15
2022-12-26T05:21:55.220Z,11.10
2022-12-26T05:25:17.553Z,12.82
2022-12-26T05:28:44.468Z,11.73
2022-12-26T05:31:47.383Z,11.60
2022-12-26T05:34:51.127Z,10.77
2022-12-26T05:37:57.781Z,11.73
2022-12-26T05:41:25.989Z,10.80
2022-12-26T05:44:28.768Z,11.65
2022-12-26T05:47:31.951Z,10.90
2022-12-26T05:50:35.266Z,10.80
2022-12-26T05:53:58.340Z,10.68
2022-12-26T05:57:04.017Z,11.18
2022-12-26T06:00:15.841Z,14.77
2022-12-26T06:03:19.014Z,15.45
2022-12-26T06:06:23.379Z,12.82
2022-12-26T06:09:27.405Z,13.95
2022-12-26T06:12:32.018Z,11.40
2022-12-26T06:15:38.832Z,11.45
2022-12-26T06:18:42.044Z,11.20
2022-12-26T06:21:45.247Z,10.85
2022-12-26T06:25:08.466Z,12.25
2022-12-26T06:28:11.464Z,13.23
2022-12-26T06:31:23.736Z,13.85
2022-12-26T06:34:29.981Z,13.15
2022-12-26T06:37:34.273Z,15.95
2022-12-26T06:40:42.135Z,16.58
2022-12-26T06:43:47.264Z,13.48
2022-12-26T06:46:50.442Z,12.48
2022-12-26T06:49:53.602Z,11.12
2022-12-26T06:52:56.796Z,12.02
2022-12-26T06:56:10.039Z,11.43
2022-12-26T06:59:13.261Z,10.23
2022-12-26T07:02:16.576Z,10.65
2022-12-26T07:05:40.604Z,9.27
2022-12-26T07:08:43.723Z,10.18
2022-12-26T07:11:50.028Z,9.88
2022-12-26T07:14:58.052Z,9.68
2022-12-26T07:18:06.347Z,11.60
2022-12-26T07:21:15.423Z,11.95
2022-12-26T07:24:21.770Z,10.50
2022-12-26T07:27:24.711Z,11.63
2022-12-26T07:30:28.568Z,10.82
2022-12-26T07:33:53.883Z,11.05
2022-12-26T07:36:59.033Z,11.90
2022-12-26T07:40:01.777Z,16.45
2022-12-26T07:43:04.884Z,14.27
2022-12-26T07:46:07.805Z,12.75
2022-12-26T07:49:12.575Z,10.65
2022-12-26T07:52:15.639Z,11.65
2022-12-26T07:55:18.896Z,11.63
2022-12-26T07:58:24.619Z,11.00
2022-12-26T08:01:28.449Z,12.35
2022-12-26T08:04:34.535Z,11.57
2022-12-26T08:07:37.426Z,12.73
2022-12-26T08:10:40.650Z,11.52
2022-12-26T08:13:43.708Z,11.48
2022-12-26T08:16:51.396Z,10.60
2022-12-26T08:19:55.881Z,10.57
2022-12-26T08:22:58.991Z,11.15
2022-12-26T08:26:10.425Z,10.43
2022-12-26T08:29:14.137Z,12.63
2022-12-26T08:32:17.202Z,11.43
2022-12-26T08:35:20.312Z,15.48
2022-12-26T08:38:23.506Z,14.32
2022-12-26T08:41:28.477Z,11.77
2022-12-26T08:44:31.413Z,14.87
2022-12-26T08:47:34.551Z,10.52
2022-12-26T08:50:41.017Z,8.88
2022-12-26T08:53:46.058Z,10.00
2022-12-26T08:57:09.595Z,10.65
2022-12-26T09:00:13.552Z,10.73
2022-12-26T09:03:16.633Z,9.38
2022-12-26T09:06:20.759Z,10.05
2022-12-26T09:09:23.498Z,9.55
2022-12-26T09:12:26.979Z,16.87
2022-12-26T09:15:29.991Z,19.10
2022-12-26T09:18:33.683Z,14.27
2022-12-26T09:21:36.631Z,17.73
2022-12-26T09:24:40.136Z,11.90
2022-12-26T09:27:42.886Z,11.75
2022-12-26T09:30:47.106Z,10.18
2022-12-26T09:33:50.404Z,11.60
2022-12-26T09:36:53.462Z,12.02
2022-12-26T09:39:56.297Z,12.75
2022-12-26T09:43:21.649Z,10.68
2022-12-26T09:46:39.762Z,12.27
2022-12-26T09:50:14.315Z,16.02
2022-12-26T09:53:29.515Z,13.10
2022-12-26T09:57:01.659Z,22.35
2022-12-26T10:00:05.090Z,18.73
2022-12-26T10:03:15.094Z,10.60
2022-12-26T10:06:18.253Z,9.23
2022-12-26T10:09:54.330Z,9.35
2022-12-26T10:13:19.359Z,9.20
2022-12-26T10:16:37.370Z,8.82
2022-12-26T10:20:09.616Z,9.20
2022-12-26T10:23:39.860Z,8.43
2022-12-26T10:26:50.463Z,8.80
2022-12-26T10:30:06.153Z,10.20
2022-12-26T10:33:40.296Z,7.75
2022-12-26T10:36:51.059Z,7.85
2022-12-26T10:40:23.079Z,11.57
2022-12-26T10:43:34.334Z,12.90
2022-12-26T10:46:54.804Z,7.40
2022-12-26T10:53:05.768Z,7.72
2022-12-26T10:56:12.009Z,7.53
2022-12-26T10:59:22.699Z,6.90
2022-12-26T11:02:25.737Z,7.65
2022-12-26T11:08:52.134Z,8.20
2022-12-26T11:11:55.142Z,7.80
2022-12-26T11:15:00.621Z,7.75
2022-12-26T11:18:16.624Z,8.07
2022-12-26T11:21:19.633Z,7.65
2022-12-26T11:24:25.591Z,6.70
2022-12-26T11:27:28.344Z,7.45
2022-12-26T11:30:34.005Z,6.32
2022-12-26T11:33:43.300Z,6.35
2022-12-26T11:36:49.714Z,7.07
2022-12-26T11:39:53.666Z,7.10
2022-12-26T11:42:59.296Z,7.43
2022-12-26T11:46:02.443Z,7.43
2022-12-26T11:49:06.426Z,7.28
2022-12-26T11:52:41.028Z,7.32
2022-12-26T11:55:44.321Z,7.47
2022-12-26T11:58:47.101Z,7.03
2022-12-26T12:02:18.246Z,6.57
2022-12-26T12:05:27.867Z,6.95
2022-12-26T12:09:12.146Z,7.40
2022-12-26T12:12:42.582Z,7.12
2022-12-26T12:15:57.261Z,6.78
2022-12-26T12:19:34.298Z,7.30
2022-12-26T12:22:45.028Z,6.45
2022-12-26T12:26:01.774Z,6.18
2022-12-26T12:29:31.979Z,7.30
2022-12-26T12:32:58.756Z,6.80
2022-12-26T12:36:11.415Z,6.78
2022-12-26T12:39:33.767Z,6.85
2022-12-26T12:43:06.836Z,6.95
2022-12-26T12:46:31.513Z,6.25
2022-12-26T12:50:02.939Z,6.47
2022-12-26T12:53:33.120Z,5.95
2022-12-26T12:57:26.929Z,5.40
2022-12-26T13:00:40.970Z,6.75
2022-12-26T13:04:13.540Z,5.95
2022-12-26T13:07:27.161Z,6.25
2022-12-26T13:10:34.465Z,6.20
2022-12-26T13:13:46.197Z,6.68
2022-12-26T13:17:01.124Z,7.28
2022-12-26T13:20:44.636Z,7.37
2022-12-26T13:24:19.217Z,7.68
2022-12-26T13:27:27.421Z,10.18
2022-12-26T13:30:30.489Z,12.20
2022-12-26T13:33:34.523Z,13.95
2022-12-26T13:36:41.939Z,8.73
2022-12-26T13:39:45.582Z,10.23
2022-12-26T13:43:21.718Z,8.88
2022-12-26T13:46:55.611Z,8.57
2022-12-26T13:49:58.622Z,7.75
2022-12-26T13:53:01.923Z,7.93
2022-12-26T13:56:30.765Z,7.90
2022-12-26T13:59:44.013Z,7.67
2022-12-26T14:03:18.093Z,8.25
2022-12-26T14:06:29.953Z,11.30
2022-12-26T14:09:48.885Z,11.23
2022-12-26T14:13:00.901Z,8.80
2022-12-26T14:16:16.190Z,8.77
2022-12-26T14:19:28.323Z,9.75
2022-12-26T14:22:34.076Z,9.52
2022-12-26T14:25:51.144Z,8.60
2022-12-26T14:29:13.384Z,7.90
2022-12-26T14:32:38.017Z,14.30
2022-12-26T14:36:00.973Z,7.55
2022-12-26T14:39:41.691Z,7.05
2022-12-26T14:46:31.330Z,7.30
2022-12-26T14:49:36.143Z,18.85
2022-12-26T14:52:40.900Z,25.55
2022-12-26T14:55:53.353Z,26.90
2022-12-26T14:59:24.398Z,21.62
2022-12-26T15:02:34.321Z,10.05
2022-12-26T15:05:41.648Z,9.55
2022-12-26T15:09:06.331Z,14.40
2022-12-26T15:12:59.845Z,10.65
2022-12-26T15:16:31.335Z,9.88
2022-12-26T15:19:34.406Z,10.20
2022-12-26T15:23:15.063Z,10.35
2022-12-26T15:26:30.405Z,9.13
2022-12-26T15:30:10.825Z,8.85
2022-12-26T15:33:31.432Z,8.98
2022-12-26T15:37:04.370Z,8.77
2022-12-26T15:40:14.879Z,13.10
2022-12-26T15:43:33.807Z,8.93
2022-12-26T15:46:50.829Z,8.20
2022-12-26T15:50:19.175Z,8.60
2022-12-26T15:53:25.475Z,8.10
2022-12-26T15:56:52.203Z,8.70
2022-12-26T16:00:32.392Z,9.25
2022-12-26T16:03:41.459Z,8.70
2022-12-26T16:07:09.151Z,8.23
2022-12-26T16:10:35.017Z,9.18
2022-12-26T16:14:35.949Z,8.75
2022-12-26T16:17:41.593Z,9.07
2022-12-26T16:21:04.756Z,8.63
2022-12-26T16:24:10.089Z,9.23
2022-12-26T16:27:18.746Z,8.30
2022-12-26T16:30:27.376Z,9.35
2022-12-26T16:33:33.635Z,10.40
2022-12-26T16:36:37.182Z,9.63
2022-12-26T16:39:40.066Z,8.98
2022-12-26T16:42:45.218Z,9.50
2022-12-26T16:45:51.045Z,8.48
2022-12-26T16:49:03.442Z,8.20
2022-12-26T16:52:08.087Z,7.97
2022-12-26T16:55:36.265Z,8.25
2022-12-26T16:58:39.603Z,8.05
2022-12-26T17:01:47.571Z,7.72
2022-12-26T17:04:58.449Z,7.65
2022-12-26T17:08:03.435Z,8.63
2022-12-26T17:11:06.345Z,8.10
2022-12-26T17:14:25.473Z,7.78
2022-12-26T17:17:38.451Z,8.68
2022-12-26T17:20:41.583Z,8.23
2022-12-26T17:23:45.184Z,8.65
2022-12-26T17:27:11.715Z,7.65
2022-12-26T17:30:29.480Z,7.28
2022-12-26T17:33:34.981Z,7.65
2022-12-26T17:37:17.118Z,8.40
2022-12-26T17:40:07.165Z,7.03
2022-12-26T17:43:12.935Z,7.70
2022-12-26T17:46:18.327Z,7.60
2022-12-26T17:49:21.784Z,7.70
2022-12-26T17:52:29.378Z,8.88
2022-12-26T17:55:33.216Z,8.55
2022-12-26T17:58:44.683Z,7.80
2022-12-26T18:01:47.595Z,8.00
2022-12-26T18:04:51.306Z,8.73
2022-12-26T18:07:59.668Z,12.07
2022-12-26T18:11:28.995Z,12.15
2022-12-26T18:15:02.150Z,12.98
2022-12-26T18:18:33.784Z,19.17
2022-12-26T18:21:38.735Z,17.62
2022-12-26T18:24:52.056Z,15.40
2022-12-26T18:27:55.771Z,15.77
2022-12-26T18:30:59.670Z,17.98
2022-12-26T18:34:22.707Z,17.92
2022-12-26T18:37:29.927Z,15.55
2022-12-26T18:40:39.764Z,15.43
2022-12-26T18:43:45.193Z,16.95
2022-12-26T18:46:48.023Z,17.48
2022-12-26T18:49:59.305Z,15.77
2022-12-26T18:53:21.940Z,15.93
2022-12-26T18:56:27.010Z,16.37
2022-12-26T18:59:29.832Z,14.57
2022-12-26T19:02:33.312Z,15.70
2022-12-26T19:05:36.303Z,17.25
2022-12-26T19:08:39.588Z,18.50
2022-12-26T19:11:43.264Z,16.95
2022-12-26T19:14:47.068Z,19.35
2022-12-26T19:17:49.821Z,19.17
2022-12-26T19:20:53.040Z,17.98
2022-12-26T19:23:55.855Z,19.75
2022-12-26T19:27:01.039Z,20.25
2022-12-26T19:30:06.622Z,18.12
2022-12-26T19:33:29.704Z,17.80
2022-12-26T19:36:52.441Z,19.75
2022-12-26T19:39:58.441Z,18.12
2022-12-26T19:43:21.719Z,17.33
2022-12-26T19:46:42.021Z,17.65
2022-12-26T19:49:46.925Z,16.17
2022-12-26T19:52:50.903Z,19.10
2022-12-26T19:56:17.168Z,16.73
2022-12-26T19:59:43.226Z,18.48
2022-12-26T20:02:46.360Z,16.45
2022-12-26T20:06:31.867Z,18.83
2022-12-26T20:09:37.115Z,21.17
2022-12-26T20:12:40.290Z,20.60
2022-12-26T20:15:43.085Z,17.65
2022-12-26T20:19:08.551Z,16.60
2022-12-26T20:22:11.763Z,18.02
2022-12-26T20:25:14.936Z,21.50
2022-12-26T20:28:39.861Z,23.35
2022-12-26T20:31:43.146Z,24.10
2022-12-26T20:34:46.931Z,24.37
2022-12-26T20:38:02.748Z,25.37
2022-12-26T20:41:06.731Z,23.33
2022-12-26T20:44:19.437Z,22.27
2022-12-26T20:47:22.440Z,21.50
2022-12-26T20:50:28.462Z,20.83
2022-12-26T20:53:31.737Z,23.73
2022-12-26T20:56:36.449Z,21.83
2022-12-26T20:59:59.165Z,20.73
2022-12-26T21:03:22.794Z,19.37
2022-12-26T21:06:30.751Z,19.50
2022-12-26T21:09:34.172Z,18.95
2022-12-26T21:12:37.387Z,20.90
2022-12-26T21:15:40.703Z,20.42
2022-12-26T21:18:48.419Z,20.73
2022-12-26T21:22:11.823Z,17.60
2022-12-26T21:25:14.608Z,19.65
2022-12-26T21:28:17.934Z,20.10
2022-12-26T21:31:21.797Z,20.90
2022-12-26T21:34:45.514Z,18.67
2022-12-26T21:37:48.519Z,20.27
2022-12-26T21:40:51.724Z,20.85
2022-12-26T21:43:55.166Z,22.08
2022-12-26T21:46:58.474Z,20.37
2022-12-26T21:50:01.281Z,20.88
2022-12-26T21:53:04.712Z,19.77
2022-12-26T21:56:08.989Z,18.62
2022-12-26T21:59:34.771Z,18.77
2022-12-26T22:02:57.502Z,20.23
2022-12-26T22:06:01.712Z,20.30
2022-12-26T22:09:08.157Z,20.77
2022-12-26T22:12:40.412Z,22.33
2022-12-26T22:16:05.737Z,23.42
2022-12-26T22:19:28.876Z,20.90
2022-12-26T22:22:52.489Z,20.62
2022-12-26T22:25:57.343Z,20.98
2022-12-26T22:29:00.570Z,18.98
2022-12-26T22:32:07.980Z,19.58
2022-12-26T22:35:18.179Z,20.05
2022-12-26T22:38:42.778Z,18.65
2022-12-26T22:41:49.738Z,21.67
2022-12-26T22:44:57.408Z,19.95
2022-12-26T22:48:02.698Z,20.35
2022-12-26T22:51:06.847Z,22.48
2022-12-26T22:54:10.000Z,20.88
2022-12-26T22:57:13.997Z,25.40
2022-12-26T23:00:17.350Z,22.75
2022-12-26T23:03:21.451Z,22.75
2022-12-26T23:06:31.124Z,25.80
2022-12-26T23:09:35.431Z,23.40
2022-12-26T23:12:45.082Z,22.80
2022-12-26T23:15:56.531Z,23.67
2022-12-26T23:19:28.340Z,21.42
2022-12-26T23:22:38.343Z,19.83
2022-12-26T23:25:41.748Z,19.85
2022-12-26T23:29:04.299Z,18.77
2022-12-26T23:32:10.174Z,19.77
2022-12-26T23:35:20.312Z,18.35
2022-12-26T23:38:52.639Z,18.95
2022-12-26T23:41:57.680Z,17.87
2022-12-26T23:45:02.525Z,18.95
2022-12-26T23:48:06.047Z,17.17
2022-12-26T23:51:09.764Z,17.98
2022-12-26T23:54:14.734Z,17.42
2022-12-26T23:57:26.213Z,17.52
